createdAt,value
2018-06-18T03:01:05.548Z,5.63
2018-06-18T03:02:04.632Z,5.63
2018-06-18T03:03:04.046Z,5.63
2018-06-18T03:04:04.181Z,5.63
2018-06-18T03:05:04.356Z,5.63
2018-06-18T03:06:04.452Z,5.63
2018-06-18T03:07:04.698Z,5.63
2018-06-18T03:08:04.833Z,5.63
2018-06-18T03:09:05.058Z,5.63
2018-06-18T03:10:05.144Z,11.25
2018-06-18T03:11:05.391Z,11.25
2018-06-18T03:12:05.450Z,11.25
2018-06-18T03:13:05.627Z,11.25
2018-06-18T03:14:05.844Z,11.25
2018-06-18T03:15:06.043Z,11.25
2018-06-18T03:16:06.173Z,11.25
2018-06-18T03:17:06.305Z,16.88
2018-06-18T03:18:06.560Z,16.88
2018-06-18T03:19:06.677Z,16.88
2018-06-18T03:20:06.839Z,16.88
2018-06-18T03:21:07.019Z,16.88
2018-06-18T03:22:07.179Z,16.88
2018-06-18T03:23:07.381Z,16.88
2018-06-18T03:24:07.476Z,16.88
2018-06-18T03:25:07.694Z,22.50
2018-06-18T03:26:07.844Z,22.50
2018-06-18T03:27:07.982Z,22.50
2018-06-18T03:28:08.186Z,22.50
2018-06-18T03:29:08.361Z,28.13
2018-06-18T03:30:08.495Z,28.13
2018-06-18T03:31:08.709Z,28.13
2018-06-18T03:32:08.881Z,33.75
2018-06-18T03:33:09.014Z,33.75
2018-06-18T03:34:09.186Z,33.75
2018-06-18T03:35:09.400Z,39.38
2018-06-18T03:36:09.566Z,39.38
2018-06-18T03:37:09.682Z,45.00
2018-06-18T03:38:09.865Z,45.00
2018-06-18T03:39:10.093Z,50.63
2018-06-18T03:40:10.195Z,50.63
2018-06-18T03:41:10.344Z,56.25
2018-06-18T03:42:10.505Z,56.25
2018-06-18T03:43:10.728Z,56.25
2018-06-18T03:44:10.795Z,61.88
2018-06-18T03:45:11.025Z,61.88
2018-06-18T03:46:11.140Z,67.50
2018-06-18T03:47:11.359Z,67.50
2018-06-18T03:48:11.498Z,67.50
2018-06-18T03:49:11.725Z,67.50
2018-06-18T03:50:11.816Z,67.50
2018-06-18T03:51:12.031Z,73.13
2018-06-18T03:52:12.181Z,73.13
2018-06-18T03:53:12.366Z,73.13
2018-06-18T03:54:12.458Z,73.13
2018-06-18T03:55:12.687Z,73.13
2018-06-18T03:56:12.819Z,78.75
2018-06-18T03:57:12.951Z,78.75
2018-06-18T03:58:13.212Z,78.75
2018-06-18T03:59:13.325Z,78.75
2018-06-18T04:00:13.479Z,78.75
2018-06-18T04:01:13.628Z,78.75
2018-06-18T04:02:13.893Z,78.75
2018-06-18T04:03:14.090Z,78.75
2018-06-18T04:04:14.251Z,78.75
2018-06-18T04:05:14.334Z,78.75
2018-06-18T04:06:14.577Z,84.38
2018-06-18T04:07:14.708Z,84.38
2018-06-18T04:08:14.979Z,84.38
2018-06-18T04:09:14.980Z,78.75
2018-06-18T04:10:15.158Z,84.38
2018-06-18T04:11:15.457Z,84.38
2018-06-18T04:12:15.518Z,90.00
2018-06-18T04:13:15.690Z,95.63
2018-06-18T04:14:15.890Z,101.25
2018-06-18T04:15:16.055Z,106.88
2018-06-18T04:16:16.155Z,112.50
2018-06-18T04:17:16.328Z,118.13
2018-06-18T04:18:16.612Z,118.13
2018-06-18T04:19:16.783Z,112.50
2018-06-18T04:20:16.969Z,112.50
2018-06-18T04:21:17.060Z,112.50
2018-06-18T04:22:17.229Z,112.50
2018-06-18T04:23:17.445Z,112.50
2018-06-18T04:24:17.572Z,106.88
2018-06-18T04:25:17.722Z,106.88
2018-06-18T04:26:17.873Z,101.25
2018-06-18T04:27:18.125Z,101.25
2018-06-18T04:28:18.214Z,106.88
2018-06-18T04:29:18.365Z,106.88
2018-06-18T04:30:18.585Z,106.88
2018-06-18T04:31:18.744Z,106.88
2018-06-18T04:32:18.854Z,106.88
2018-06-18T04:33:19.157Z,112.50
2018-06-18T04:34:19.334Z,112.50
2018-06-18T04:35:19.478Z,118.13
2018-06-18T04:36:19.522Z,123.75
2018-06-18T04:37:19.833Z,123.75
2018-06-18T04:38:19.902Z,129.38
2018-06-18T04:39:20.123Z,135.00
2018-06-18T04:40:20.277Z,140.63
2018-06-18T04:41:20.475Z,146.25
2018-06-18T04:42:20.613Z,151.88
2018-06-18T04:43:20.743Z,157.50
2018-06-18T04:44:20.967Z,157.50
2018-06-18T04:45:21.164Z,163.13
2018-06-18T04:46:21.234Z,163.13
2018-06-18T04:47:21.423Z,163.13
2018-06-18T04:48:21.628Z,157.50
2018-06-18T04:49:21.760Z,157.50
2018-06-18T04:50:22.013Z,151.88
2018-06-18T04:51:22.141Z,157.50
2018-06-18T04:52:22.262Z,157.50
2018-06-18T04:53:22.512Z,163.13
2018-06-18T04:54:22.607Z,168.75
2018-06-18T04:55:22.805Z,174.38
2018-06-18T04:56:23.106Z,185.63
2018-06-18T04:57:23.219Z,191.25
2018-06-18T04:58:23.367Z,202.50
2018-06-18T04:59:23.628Z,213.75
2018-06-18T05:00:23.773Z,225.00
2018-06-18T05:01:23.948Z,236.25
2018-06-18T05:02:24.086Z,247.50
2018-06-18T05:03:24.215Z,236.25
2018-06-18T05:04:24.415Z,241.88
2018-06-18T05:05:24.618Z,241.88
2018-06-18T05:06:24.722Z,247.50
2018-06-18T05:07:24.908Z,241.88
2018-06-18T05:08:25.050Z,241.88
2018-06-18T05:09:25.247Z,241.88
2018-06-18T05:10:25.535Z,236.25
2018-06-18T05:11:25.591Z,236.25
2018-06-18T05:12:25.758Z,236.25
2018-06-18T05:13:25.892Z,247.50
2018-06-18T05:14:26.040Z,258.75
2018-06-18T05:15:26.265Z,270.00
2018-06-18T05:16:26.421Z,286.88
2018-06-18T05:17:26.607Z,298.13
2018-06-18T05:18:26.812Z,298.13
2018-06-18T05:19:27.036Z,298.13
2018-06-18T05:20:27.218Z,292.50
2018-06-18T05:21:27.379Z,286.88
2018-06-18T05:22:27.503Z,281.25
2018-06-18T05:23:27.702Z,286.88
2018-06-18T05:24:27.932Z,292.50
2018-06-18T05:25:28.090Z,292.50
2018-06-18T05:26:28.286Z,298.13
2018-06-18T05:27:28.416Z,292.50
2018-06-18T05:28:28.565Z,286.88
2018-06-18T05:29:28.935Z,281.25
2018-06-18T05:30:28.896Z,275.63
2018-06-18T05:31:29.097Z,270.00
2018-06-18T05:32:29.388Z,275.63
2018-06-18T05:33:29.515Z,281.25
2018-06-18T05:34:29.661Z,286.88
2018-06-18T05:35:29.857Z,298.13
2018-06-18T05:36:30.159Z,309.38
2018-06-18T05:37:30.104Z,315.00
2018-06-18T05:38:30.379Z,326.25
2018-06-18T05:39:30.364Z,337.50
2018-06-18T05:40:30.636Z,337.50
2018-06-18T05:41:30.803Z,331.88
2018-06-18T05:42:30.860Z,320.63
2018-06-18T05:43:31.236Z,331.88
2018-06-18T05:44:31.319Z,303.75
2018-06-18T05:45:31.464Z,292.50
2018-06-18T05:46:31.692Z,286.88
2018-06-18T05:47:31.854Z,286.88
2018-06-18T05:48:31.956Z,286.88
2018-06-18T05:49:32.082Z,286.88
2018-06-18T05:50:32.408Z,292.50
2018-06-18T05:51:32.677Z,309.38
2018-06-18T05:52:32.824Z,337.50
2018-06-18T05:53:32.971Z,360.00
2018-06-18T05:54:33.151Z,382.50
2018-06-18T05:55:33.303Z,388.13
2018-06-18T05:56:33.477Z,382.50
2018-06-18T05:57:33.566Z,376.88
2018-06-18T05:58:33.897Z,360.00
2018-06-18T05:59:34.042Z,348.75
2018-06-18T06:00:35.304Z,337.50
2018-06-18T06:01:34.610Z,331.88
2018-06-18T06:02:34.533Z,320.63
2018-06-18T06:03:34.741Z,315.00
2018-06-18T06:04:34.931Z,331.88
2018-06-18T06:05:35.045Z,376.88
2018-06-18T06:06:35.284Z,416.25
2018-06-18T06:07:35.521Z,416.25
2018-06-18T06:08:37.296Z,433.13
2018-06-18T06:09:48.711Z,461.25
2018-06-18T06:10:38.826Z,444.38
2018-06-18T06:11:39.154Z,450.00
2018-06-18T06:12:36.621Z,461.25
2018-06-18T06:13:36.480Z,461.25
2018-06-18T06:14:36.633Z,511.88
2018-06-18T06:15:36.829Z,534.38
2018-06-18T06:16:37.016Z,517.50
2018-06-18T06:17:37.187Z,523.13
2018-06-18T06:18:37.296Z,511.88
2018-06-18T06:19:37.504Z,483.75
2018-06-18T06:20:37.680Z,450.00
2018-06-18T06:21:37.788Z,427.50
2018-06-18T06:22:37.948Z,410.63
2018-06-18T06:23:38.162Z,421.88
2018-06-18T06:24:38.439Z,433.13
2018-06-18T06:25:38.587Z,455.63
2018-06-18T06:26:38.720Z,472.50
2018-06-18T06:27:38.910Z,495.00
2018-06-18T06:28:39.107Z,517.50
2018-06-18T06:29:39.377Z,551.25
2018-06-18T06:30:39.465Z,573.75
2018-06-18T06:31:39.617Z,579.38
2018-06-18T06:32:39.757Z,568.13
2018-06-18T06:33:40.107Z,551.25
2018-06-18T06:34:40.140Z,523.13
2018-06-18T06:35:40.337Z,506.25
2018-06-18T06:36:40.541Z,478.13
2018-06-18T06:37:40.708Z,472.50
2018-06-18T06:38:40.875Z,466.88
2018-06-18T06:39:41.098Z,483.75
2018-06-18T06:40:41.181Z,489.38
2018-06-18T06:41:41.399Z,511.88
2018-06-18T06:42:41.601Z,534.38
2018-06-18T06:43:42.464Z,528.75
2018-06-18T06:44:41.949Z,528.75
2018-06-18T06:45:42.032Z,545.63
2018-06-18T06:46:42.211Z,556.88
2018-06-18T06:47:42.414Z,562.50
2018-06-18T06:48:42.567Z,562.50
2018-06-18T06:49:42.671Z,562.50
2018-06-18T06:50:42.943Z,562.50
2018-06-18T06:51:43.138Z,545.63
2018-06-18T06:52:43.219Z,523.13
2018-06-18T06:53:43.439Z,511.88
2018-06-18T06:54:43.642Z,506.25
2018-06-18T06:55:43.840Z,500.63
2018-06-18T06:56:44.067Z,483.75
2018-06-18T06:57:44.210Z,466.88
2018-06-18T06:58:44.996Z,466.88
2018-06-18T06:59:44.544Z,489.38
2018-06-18T07:00:44.630Z,523.13
2018-06-18T07:01:44.927Z,556.88
2018-06-18T07:02:45.162Z,590.63
2018-06-18T07:03:45.235Z,607.50
2018-06-18T07:04:45.469Z,590.63
2018-06-18T07:05:45.673Z,579.38
2018-06-18T07:06:45.859Z,562.50
2018-06-18T07:07:45.982Z,534.38
2018-06-18T07:08:46.128Z,489.38
2018-06-18T07:09:46.348Z,444.38
2018-06-18T07:10:46.536Z,421.88
2018-06-18T07:11:46.717Z,410.63
2018-06-18T07:12:46.855Z,410.63
2018-06-18T07:13:47.043Z,421.88
2018-06-18T07:14:47.167Z,438.75
2018-06-18T07:15:47.343Z,455.63
2018-06-18T07:16:47.469Z,466.88
2018-06-18T07:17:47.602Z,461.25
2018-06-18T07:18:47.876Z,455.63
2018-06-18T07:19:47.981Z,450.00
2018-06-18T07:20:48.136Z,461.25
2018-06-18T07:21:48.347Z,466.88
2018-06-18T07:22:48.611Z,466.88
2018-06-18T07:23:48.724Z,461.25
2018-06-18T07:24:48.879Z,472.50
2018-06-18T07:25:49.054Z,472.50
2018-06-18T07:26:49.209Z,478.13
2018-06-18T07:27:49.402Z,483.75
2018-06-18T07:28:49.609Z,495.00
2018-06-18T07:29:49.716Z,506.25
2018-06-18T07:30:50.045Z,523.13
2018-06-18T07:31:50.050Z,528.75
2018-06-18T07:32:50.187Z,528.75
2018-06-18T07:33:50.481Z,528.75
2018-06-18T07:34:50.607Z,528.75
2018-06-18T07:35:50.703Z,511.88
2018-06-18T07:36:51.278Z,500.63
2018-06-18T07:37:51.113Z,489.38
2018-06-18T07:38:51.231Z,489.38
2018-06-18T07:39:51.379Z,489.38
2018-06-18T07:40:51.564Z,506.25
2018-06-18T07:41:51.710Z,528.75
2018-06-18T07:42:51.871Z,540.00
2018-06-18T07:43:52.106Z,556.88
2018-06-18T07:44:52.296Z,551.25
2018-06-18T07:45:52.360Z,528.75
2018-06-18T07:46:52.623Z,528.75
2018-06-18T07:47:52.752Z,523.13
2018-06-18T07:48:52.963Z,523.13
2018-06-18T07:49:53.130Z,511.88
2018-06-18T07:50:53.258Z,495.00
2018-06-18T07:51:53.467Z,478.13
2018-06-18T07:52:53.632Z,466.88
2018-06-18T07:53:53.779Z,461.25
2018-06-18T07:54:54.118Z,461.25
2018-06-18T07:55:54.177Z,461.25
2018-06-18T07:56:54.292Z,461.25
2018-06-18T07:57:54.508Z,461.25
2018-06-18T07:58:54.695Z,450.00
2018-06-18T07:59:54.796Z,438.75
2018-06-18T08:00:55.017Z,433.13
2018-06-18T08:01:55.200Z,433.13
2018-06-18T08:02:55.308Z,433.13
2018-06-18T08:03:55.569Z,427.50
2018-06-18T08:04:55.724Z,410.63
2018-06-18T08:05:55.854Z,382.50
2018-06-18T08:06:56.021Z,354.38
2018-06-18T08:07:56.194Z,326.25
2018-06-18T08:08:56.388Z,303.75
2018-06-18T08:09:56.540Z,292.50
2018-06-18T08:10:56.827Z,292.50
2018-06-18T08:11:56.876Z,315.00
2018-06-18T08:12:57.091Z,337.50
2018-06-18T08:13:57.203Z,365.63
2018-06-18T08:14:57.403Z,393.75
2018-06-18T08:15:57.700Z,427.50
2018-06-18T08:16:57.964Z,472.50
2018-06-18T08:17:58.018Z,528.75
2018-06-18T08:18:58.213Z,579.38
2018-06-18T08:19:58.333Z,607.50
2018-06-18T08:20:58.542Z,613.13
2018-06-18T08:21:58.711Z,601.88
2018-06-18T08:22:58.905Z,579.38
2018-06-18T08:23:59.056Z,534.38
2018-06-18T08:24:59.244Z,489.38
2018-06-18T08:25:59.424Z,455.63
2018-06-18T08:26:59.607Z,450.00
2018-06-18T08:27:59.731Z,461.25
2018-06-18T08:28:59.865Z,478.13
2018-06-18T08:30:00.070Z,489.38
2018-06-18T08:31:00.286Z,500.63
2018-06-18T08:32:00.447Z,506.25
2018-06-18T08:33:00.593Z,506.25
2018-06-18T08:34:00.794Z,511.88
2018-06-18T08:35:00.998Z,500.63
2018-06-18T08:36:01.193Z,495.00
2018-06-18T08:37:01.322Z,472.50
2018-06-18T08:38:01.441Z,461.25
2018-06-18T08:39:01.642Z,455.63
2018-06-18T08:40:01.802Z,450.00
2018-06-18T08:41:01.984Z,450.00
2018-06-18T08:42:02.189Z,455.63
2018-06-18T08:43:02.305Z,472.50
2018-06-18T08:44:02.527Z,500.63
2018-06-18T08:45:02.679Z,534.38
2018-06-18T08:46:02.861Z,585.00
2018-06-18T08:47:03.017Z,624.38
2018-06-18T08:48:03.159Z,641.25
2018-06-18T08:49:03.350Z,613.13
2018-06-18T08:50:03.539Z,579.38
2018-06-18T08:51:03.629Z,579.38
2018-06-18T08:52:03.899Z,585.00
2018-06-18T08:53:04.069Z,613.13
2018-06-18T08:54:04.199Z,641.25
2018-06-18T08:55:04.423Z,641.25
2018-06-18T08:56:04.553Z,624.38
2018-06-18T08:57:04.763Z,630.00
2018-06-18T08:58:04.951Z,663.75
2018-06-18T08:59:05.099Z,720.00
2018-06-18T09:00:05.292Z,776.25
2018-06-18T09:01:05.471Z,793.13
2018-06-18T09:02:05.628Z,787.50
2018-06-18T09:03:05.892Z,781.88
2018-06-18T09:04:05.932Z,770.63
2018-06-18T09:05:06.177Z,793.13
2018-06-18T09:06:06.391Z,843.75
2018-06-18T09:07:06.473Z,871.88
2018-06-18T09:08:06.734Z,883.13
2018-06-18T09:09:06.839Z,883.13
2018-06-18T09:10:07.010Z,877.50
2018-06-18T09:11:07.177Z,843.75
2018-06-18T09:12:07.339Z,810.00
2018-06-18T09:13:07.415Z,765.00
2018-06-18T09:14:07.627Z,731.25
2018-06-18T09:15:07.837Z,753.75
2018-06-18T09:16:07.946Z,787.50
2018-06-18T09:17:08.079Z,810.00
2018-06-18T09:18:08.267Z,826.88
2018-06-18T09:19:08.467Z,888.75
2018-06-18T09:20:08.673Z,956.25
2018-06-18T09:21:08.776Z,1012.50
2018-06-18T09:22:09.013Z,984.38
2018-06-18T09:23:09.234Z,849.38
2018-06-18T09:24:09.340Z,748.13
2018-06-18T09:25:09.510Z,691.88
2018-06-18T09:26:09.645Z,675.00
2018-06-18T09:27:09.817Z,669.38
2018-06-18T09:28:10.026Z,680.63
2018-06-18T09:29:10.151Z,753.75
2018-06-18T09:30:10.372Z,888.75
2018-06-18T09:31:10.598Z,1051.88
2018-06-18T09:32:10.766Z,1119.38
2018-06-18T09:33:10.853Z,1158.75
2018-06-18T09:34:11.063Z,1198.13
2018-06-18T09:35:11.239Z,1203.75
2018-06-18T09:36:11.351Z,1282.50
2018-06-18T09:37:11.555Z,1344.38
2018-06-18T09:38:11.773Z,1434.38
2018-06-18T09:39:11.869Z,1434.38
2018-06-18T09:40:12.015Z,1383.75
2018-06-18T09:41:12.249Z,1400.63
2018-06-18T09:42:12.436Z,1406.25
2018-06-18T09:43:12.617Z,1451.25
2018-06-18T09:44:12.746Z,1445.63
2018-06-18T09:45:12.905Z,1479.38
2018-06-18T09:46:13.081Z,1440.00
2018-06-18T09:47:13.298Z,1406.25
2018-06-18T09:48:13.439Z,1181.25
2018-06-18T09:49:13.637Z,1147.50
2018-06-18T09:50:13.765Z,1164.38
2018-06-18T09:51:13.921Z,1237.50
2018-06-18T09:52:14.090Z,1395.00
2018-06-18T09:53:14.261Z,1468.13
2018-06-18T09:54:14.441Z,1479.38
2018-06-18T09:55:14.662Z,1518.75
2018-06-18T09:56:14.850Z,1591.88
2018-06-18T09:57:15.006Z,1507.50
2018-06-18T09:58:15.209Z,1586.25
2018-06-18T09:59:15.351Z,1344.38
2018-06-18T10:00:15.522Z,1226.25
2018-06-18T10:01:15.714Z,1125.00
2018-06-18T10:02:15.938Z,1063.13
2018-06-18T10:03:16.030Z,1006.88
2018-06-18T10:04:16.241Z,1046.25
2018-06-18T10:05:16.365Z,1220.63
2018-06-18T10:06:16.569Z,1265.63
2018-06-18T10:07:16.724Z,1327.50
2018-06-18T10:08:16.895Z,1822.50
2018-06-18T10:09:17.055Z,1811.25
2018-06-18T10:10:17.204Z,1355.63
2018-06-18T10:11:17.394Z,956.25
2018-06-18T10:12:17.611Z,1046.25
2018-06-18T10:13:17.724Z,1130.63
2018-06-18T10:14:17.865Z,1271.25
2018-06-18T10:15:18.068Z,1586.25
2018-06-18T10:16:18.279Z,1456.88
2018-06-18T10:17:18.428Z,1220.63
2018-06-18T10:18:18.635Z,1828.13
2018-06-18T10:19:18.726Z,843.75
2018-06-18T10:20:18.989Z,765.00
2018-06-18T10:21:19.133Z,770.63
2018-06-18T10:22:19.267Z,759.38
2018-06-18T10:23:19.451Z,725.63
2018-06-18T10:24:19.660Z,725.63
2018-06-18T10:25:19.810Z,731.25
2018-06-18T10:26:19.991Z,725.63
2018-06-18T10:27:20.111Z,708.75
2018-06-18T10:28:20.377Z,708.75
2018-06-18T10:29:20.453Z,708.75
2018-06-18T10:30:20.593Z,680.63
2018-06-18T10:31:20.832Z,630.00
2018-06-18T10:32:21.017Z,551.25
2018-06-18T10:33:21.128Z,534.38
2018-06-18T10:34:21.336Z,534.38
2018-06-18T10:35:21.472Z,568.13
2018-06-18T10:36:21.665Z,624.38
2018-06-18T10:37:21.841Z,725.63
2018-06-18T10:38:22.020Z,838.13
2018-06-18T10:39:22.191Z,978.75
2018-06-18T10:40:22.382Z,928.13
2018-06-18T10:41:22.522Z,978.75
2018-06-18T10:42:22.706Z,1012.50
2018-06-18T10:43:22.882Z,995.63
2018-06-18T10:44:23.122Z,911.25
2018-06-18T10:45:23.265Z,742.50
2018-06-18T10:46:23.389Z,630.00
2018-06-18T10:47:23.544Z,568.13
2018-06-18T10:48:23.763Z,528.75
2018-06-18T10:49:23.898Z,500.63
2018-06-18T10:50:24.048Z,506.25
2018-06-18T10:51:24.235Z,511.88
2018-06-18T10:52:24.457Z,500.63
2018-06-18T10:53:24.661Z,489.38
2018-06-18T10:54:24.854Z,511.88
2018-06-18T10:55:25.000Z,573.75
2018-06-18T10:56:25.163Z,658.13
2018-06-18T10:57:25.321Z,748.13
2018-06-18T10:58:25.542Z,843.75
2018-06-18T10:59:25.645Z,945.00
2018-06-18T11:00:25.854Z,1006.88
2018-06-18T11:01:26.039Z,1153.13
2018-06-18T11:02:26.166Z,1175.63
2018-06-18T11:03:26.376Z,1186.88
2018-06-18T11:04:26.595Z,1051.88
2018-06-18T11:05:26.833Z,995.63
2018-06-18T11:06:26.969Z,939.38
2018-06-18T11:07:27.110Z,894.38
2018-06-18T11:08:27.237Z,1125.00
2018-06-18T11:09:27.393Z,691.88
2018-06-18T11:10:27.631Z,556.88
2018-06-18T11:11:27.741Z,455.63
2018-06-18T11:12:28.019Z,410.63
2018-06-18T11:13:28.073Z,399.38
2018-06-18T11:14:28.297Z,421.88
2018-06-18T11:15:28.461Z,461.25
2018-06-18T11:16:28.739Z,523.13
2018-06-18T11:17:29.012Z,624.38
2018-06-18T11:18:29.055Z,765.00
2018-06-18T11:19:29.184Z,933.75
2018-06-18T11:20:29.330Z,1119.38
2018-06-18T11:21:29.518Z,1186.88
2018-06-18T11:22:29.771Z,1288.13
2018-06-18T11:23:29.934Z,1445.63
2018-06-18T11:24:30.109Z,1580.63
2018-06-18T11:25:30.274Z,1749.38
2018-06-18T11:26:30.460Z,1783.13
2018-06-18T11:27:30.637Z,1361.25
2018-06-18T11:28:30.786Z,1153.13
2018-06-18T11:29:30.948Z,984.38
2018-06-18T11:30:31.177Z,883.13
2018-06-18T11:31:31.346Z,821.25
2018-06-18T11:32:31.483Z,781.88
2018-06-18T11:33:31.710Z,731.25
2018-06-18T11:34:31.857Z,669.38
2018-06-18T11:35:32.037Z,618.75
2018-06-18T11:36:32.200Z,573.75
2018-06-18T11:37:32.395Z,523.13
2018-06-18T11:38:32.502Z,478.13
2018-06-18T11:39:32.721Z,444.38
2018-06-18T11:40:32.849Z,427.50
2018-06-18T11:41:33.020Z,433.13
2018-06-18T11:42:33.184Z,472.50
2018-06-18T11:43:33.377Z,517.50
2018-06-18T11:44:33.543Z,568.13
2018-06-18T11:45:33.725Z,635.63
2018-06-18T11:46:33.882Z,691.88
2018-06-18T11:47:34.099Z,736.88
2018-06-18T11:48:34.230Z,759.38
2018-06-18T11:49:34.411Z,765.00
2018-06-18T11:50:34.642Z,748.13
2018-06-18T11:51:34.761Z,708.75
2018-06-18T11:52:34.954Z,691.88
2018-06-18T11:53:35.136Z,697.50
2018-06-18T11:54:35.236Z,708.75
2018-06-18T11:55:35.441Z,736.88
2018-06-18T11:56:35.584Z,787.50
2018-06-18T11:57:35.878Z,855.00
2018-06-18T11:58:35.968Z,916.88
2018-06-18T11:59:36.154Z,967.50
2018-06-18T12:00:36.266Z,1012.50
2018-06-18T12:01:36.456Z,1080.00
2018-06-18T12:02:36.714Z,1068.75
2018-06-18T12:03:36.850Z,967.50
2018-06-18T12:04:36.969Z,922.50
2018-06-18T12:05:37.201Z,1153.13
2018-06-18T12:06:37.416Z,1001.25
2018-06-18T12:07:37.467Z,1029.38
2018-06-18T12:08:37.648Z,1102.50
2018-06-18T12:09:37.871Z,1164.38
2018-06-18T12:10:38.006Z,1271.25
2018-06-18T12:11:38.163Z,1485.00
2018-06-18T12:12:38.310Z,1760.63
2018-06-18T12:13:38.571Z,1164.38
2018-06-18T12:14:38.749Z,1153.13
2018-06-18T12:15:38.867Z,1203.75
2018-06-18T12:16:39.134Z,1248.75
2018-06-18T12:17:39.189Z,1310.63
2018-06-18T12:18:39.404Z,1417.50
2018-06-18T12:19:39.524Z,1501.88
2018-06-18T12:20:39.741Z,1580.63
2018-06-18T12:21:39.889Z,2289.38
2018-06-18T12:22:40.082Z,1293.75
2018-06-18T12:23:40.304Z,1119.38
2018-06-18T12:24:40.473Z,1125.00
2018-06-18T12:25:40.644Z,1018.13
2018-06-18T12:26:40.817Z,855.00
2018-06-18T12:27:40.975Z,725.63
2018-06-18T12:28:41.142Z,669.38
2018-06-18T12:29:41.315Z,613.13
2018-06-18T12:30:41.500Z,562.50
2018-06-18T12:31:41.671Z,540.00
2018-06-18T12:32:41.870Z,545.63
2018-06-18T12:33:42.016Z,551.25
2018-06-18T12:34:42.178Z,562.50
2018-06-18T12:35:42.436Z,601.88
2018-06-18T12:36:42.509Z,624.38
2018-06-18T12:37:42.723Z,635.63
2018-06-18T12:38:42.932Z,641.25
2018-06-18T12:39:43.070Z,658.13
2018-06-18T12:40:43.241Z,686.25
2018-06-18T12:41:43.396Z,742.50
2018-06-18T12:42:43.595Z,798.75
2018-06-18T12:43:43.770Z,860.63
2018-06-18T12:44:43.987Z,900.00
2018-06-18T12:45:44.224Z,928.13
2018-06-18T12:46:44.472Z,995.63
2018-06-18T12:47:44.580Z,1091.25
2018-06-18T12:48:44.740Z,1479.38
2018-06-18T12:49:44.872Z,1434.38
2018-06-18T12:50:45.070Z,1220.63
2018-06-18T12:51:45.228Z,1282.50
2018-06-18T12:52:45.419Z,1321.88
2018-06-18T12:53:45.600Z,1580.63
2018-06-18T12:54:45.774Z,1884.38
2018-06-18T12:55:45.981Z,1327.50
2018-06-18T12:56:46.140Z,1586.25
2018-06-18T12:57:46.261Z,1541.25
2018-06-18T12:58:46.388Z,4680.00
2018-06-18T12:59:46.626Z,4770.00
2018-06-18T13:00:46.807Z,1507.50
2018-06-18T13:01:46.984Z,2216.25
2018-06-18T13:02:47.187Z,4668.75
2018-06-18T13:03:47.295Z,4078.13
2018-06-18T13:04:47.442Z,1681.88
2018-06-18T13:05:47.693Z,1659.38
2018-06-18T13:06:47.785Z,4668.75
2018-06-18T13:07:47.992Z,1749.38
2018-06-18T13:08:48.230Z,1428.75
2018-06-18T13:09:48.347Z,1406.25
2018-06-18T13:10:48.613Z,1383.75
2018-06-18T13:11:48.718Z,1299.38
2018-06-18T13:12:48.917Z,1265.63
2018-06-18T13:13:49.055Z,1338.75
2018-06-18T13:14:49.217Z,2340.00
2018-06-18T13:15:49.358Z,1575.00
2018-06-18T13:16:49.566Z,1957.50
2018-06-18T13:17:49.738Z,1485.00
2018-06-18T13:18:49.881Z,1355.63
2018-06-18T13:19:50.152Z,1237.50
2018-06-18T13:20:50.275Z,1147.50
2018-06-18T13:21:50.474Z,1080.00
2018-06-18T13:22:50.667Z,1051.88
2018-06-18T13:23:50.836Z,1023.75
2018-06-18T13:24:51.031Z,1012.50
2018-06-18T13:25:51.186Z,1023.75
2018-06-18T13:26:51.384Z,1018.13
2018-06-18T13:27:51.572Z,1057.50
2018-06-18T13:28:51.672Z,1170.00
2018-06-18T13:29:51.853Z,1372.50
2018-06-18T13:30:52.005Z,2008.13
2018-06-18T13:31:52.230Z,1226.25
2018-06-18T13:32:52.403Z,1451.25
2018-06-18T13:33:52.536Z,1383.75
2018-06-18T13:34:52.679Z,1147.50
2018-06-18T13:35:52.864Z,1080.00
2018-06-18T13:36:52.993Z,1057.50
2018-06-18T13:37:53.246Z,1051.88
2018-06-18T13:38:53.369Z,1040.63
2018-06-18T13:39:53.589Z,990.00
2018-06-18T13:40:53.739Z,888.75
2018-06-18T13:41:53.933Z,781.88
2018-06-18T13:42:54.075Z,720.00
2018-06-18T13:43:54.259Z,680.63
2018-06-18T13:44:54.458Z,641.25
2018-06-18T13:45:54.595Z,613.13
2018-06-18T13:46:54.704Z,562.50
2018-06-18T13:47:54.953Z,540.00
2018-06-18T13:48:55.069Z,562.50
2018-06-18T13:49:55.261Z,669.38
2018-06-18T13:50:55.432Z,990.00
2018-06-18T13:51:55.650Z,4331.25
2018-06-18T13:52:55.803Z,3262.50
2018-06-18T13:53:56.018Z,1248.75
2018-06-18T13:54:56.135Z,1355.63
2018-06-18T13:55:56.340Z,3273.75
2018-06-18T13:56:56.557Z,1411.88
2018-06-18T13:57:56.659Z,1305.00
2018-06-18T13:58:56.895Z,1265.63
2018-06-18T13:59:57.068Z,1366.88
2018-06-18T14:00:57.236Z,1338.75
2018-06-18T14:01:57.413Z,1406.25
2018-06-18T14:02:57.532Z,1575.00
2018-06-18T14:03:57.683Z,1468.13
2018-06-18T14:04:57.914Z,1468.13
2018-06-18T14:05:58.070Z,1665.00
2018-06-18T14:06:58.191Z,1563.75
2018-06-18T14:07:58.442Z,1710.00
2018-06-18T14:08:58.564Z,4376.25
2018-06-18T14:09:58.710Z,2806.88
2018-06-18T14:10:58.944Z,3330.00
2018-06-18T14:11:59.129Z,5017.50
2018-06-18T14:12:59.338Z,1766.25
2018-06-18T14:13:59.464Z,1918.13
2018-06-18T14:14:59.585Z,3774.38
2018-06-18T14:15:59.759Z,2700.00
2018-06-18T14:16:59.955Z,2947.50
2018-06-18T14:18:00.174Z,2075.63
2018-06-18T14:19:00.348Z,871.88
2018-06-18T14:20:00.540Z,753.75
2018-06-18T14:21:00.699Z,731.25
2018-06-18T14:22:00.844Z,731.25
2018-06-18T14:23:01.018Z,765.00
2018-06-18T14:24:01.192Z,815.63
2018-06-18T14:25:01.369Z,838.13
2018-06-18T14:26:01.537Z,821.25
2018-06-18T14:27:01.718Z,815.63
2018-06-18T14:28:01.893Z,832.50
2018-06-18T14:29:02.021Z,810.00
2018-06-18T14:30:02.237Z,759.38
2018-06-18T14:31:02.442Z,748.13
2018-06-18T14:32:02.572Z,748.13
2018-06-18T14:33:02.723Z,742.50
2018-06-18T14:34:02.947Z,765.00
2018-06-18T14:35:03.075Z,855.00
2018-06-18T14:36:03.200Z,905.63
2018-06-18T14:37:03.448Z,1096.88
2018-06-18T14:38:03.613Z,1243.13
2018-06-18T14:39:03.765Z,1260.00
2018-06-18T14:40:03.941Z,1113.75
2018-06-18T14:41:04.161Z,1698.75
2018-06-18T14:42:04.383Z,1665.00
2018-06-18T14:43:04.427Z,3436.88
2018-06-18T14:44:04.590Z,1755.00
2018-06-18T14:45:04.885Z,2334.38
2018-06-18T14:46:05.132Z,2306.25
2018-06-18T14:47:05.166Z,3577.50
2018-06-18T14:48:05.240Z,1563.75
2018-06-18T14:49:05.455Z,1440.00
2018-06-18T14:50:05.661Z,2199.38
2018-06-18T14:51:05.805Z,1755.00
2018-06-18T14:52:05.958Z,1462.50
2018-06-18T14:53:06.158Z,1170.00
2018-06-18T14:54:06.402Z,1299.38
2018-06-18T14:55:06.516Z,1237.50
2018-06-18T14:56:06.813Z,1535.63
2018-06-18T14:57:06.934Z,3988.13
2018-06-18T14:58:07.138Z,1591.88
2018-06-18T14:59:07.305Z,3881.25
2018-06-18T15:00:07.491Z,3785.63
2018-06-18T15:01:07.626Z,1940.63
2018-06-18T15:02:07.790Z,1468.13
2018-06-18T15:03:07.953Z,1226.25
2018-06-18T15:04:08.234Z,1220.63
2018-06-18T15:05:08.304Z,1451.25
2018-06-18T15:06:08.500Z,1198.13
2018-06-18T15:07:08.694Z,1063.13
2018-06-18T15:08:08.878Z,1029.38
2018-06-18T15:09:09.211Z,1046.25
2018-06-18T15:10:09.270Z,1496.25
2018-06-18T15:11:09.424Z,3459.38
2018-06-18T15:12:09.580Z,3470.63
2018-06-18T15:13:09.725Z,3403.13
2018-06-18T15:14:09.898Z,3285.00
2018-06-18T15:15:10.208Z,3251.25
2018-06-18T15:16:10.218Z,838.13
2018-06-18T15:17:10.410Z,3195.00
2018-06-18T15:18:10.661Z,3172.50
2018-06-18T15:19:10.785Z,3144.38
2018-06-18T15:20:10.965Z,3138.75
2018-06-18T15:21:11.188Z,3150.00
2018-06-18T15:22:11.266Z,2896.88
2018-06-18T15:23:11.465Z,3026.25
2018-06-18T15:24:11.634Z,2998.13
2018-06-18T15:25:11.858Z,2981.25
2018-06-18T15:26:12.040Z,3054.38
2018-06-18T15:27:12.246Z,517.50